createdAt,value
2023-02-08T00:00:58.940Z,102978.56
2023-02-08T00:03:28.160Z,102976.72
2023-02-08T00:05:55.181Z,102984.53
2023-02-08T00:08:22.205Z,102992.34
2023-02-08T00:10:50.319Z,102993.34
2023-02-08T00:13:17.813Z,102992.59
2023-02-08T00:15:46.935Z,102981.94
2023-02-08T00:18:14.844Z,102986.78
2023-02-08T00:20:43.232Z,102984.88
2023-02-08T00:23:11.448Z,102993.22
2023-02-08T00:25:39.853Z,102981.94
2023-02-08T00:28:09.485Z,102986.75
2023-02-08T00:30:36.666Z,102987.06
2023-02-08T00:33:04.726Z,102978.56
2023-02-08T00:35:32.095Z,102989.94
2023-02-08T00:37:59.166Z,102985.81
2023-02-08T00:40:27.038Z,102989.25
2023-02-08T00:42:54.150Z,102982.44
2023-02-08T00:45:21.343Z,102989.84
2023-02-08T00:47:48.339Z,102987.81
2023-02-08T00:50:15.516Z,102990.09
2023-02-08T00:52:42.515Z,102987.47
2023-02-08T00:55:09.659Z,102994.53
2023-02-08T00:57:36.773Z,102983.69
2023-02-08T01:00:06.241Z,102993.19
2023-02-08T01:02:33.629Z,102987.06
2023-02-08T01:05:00.743Z,102987.13
2023-02-08T01:07:27.840Z,102994.63
2023-02-08T01:09:54.849Z,102992.69
2023-02-08T01:12:21.854Z,102987.22
2023-02-08T01:14:49.272Z,102992.53
2023-02-08T01:17:16.348Z,102999.41
2023-02-08T01:19:43.358Z,103001.25
2023-02-08T01:22:10.379Z,102990.59
2023-02-08T01:24:37.432Z,102995.91
2023-02-08T01:27:04.644Z,102996.28
2023-02-08T01:29:31.714Z,103000.84
2023-02-08T01:31:58.781Z,102994.03
2023-02-08T01:34:25.855Z,102994.63
2023-02-08T01:36:52.877Z,102994.88
2023-02-08T01:39:19.961Z,102990.66
2023-02-08T01:41:47.205Z,102993.84
2023-02-08T01:44:14.149Z,102996.53
2023-02-08T01:46:48.777Z,102990.41
2023-02-08T01:49:30.308Z,102997.75
2023-02-08T01:52:19.249Z,102994.31
2023-02-08T01:55:14.122Z,102991.59
2023-02-08T01:57:43.107Z,102999.00
2023-02-08T02:00:17.894Z,103000.09
2023-02-08T02:02:47.856Z,103006.28
2023-02-08T02:05:17.497Z,103005.78
2023-02-08T02:07:44.995Z,103004.53
2023-02-08T02:10:25.435Z,103012.09
2023-02-08T02:12:55.136Z,103011.50
2023-02-08T02:15:22.404Z,103010.75
2023-02-08T02:17:49.813Z,103014.25
2023-02-08T02:20:29.399Z,103016.47
2023-02-08T02:23:20.808Z,103016.19
2023-02-08T02:25:59.769Z,103024.44
2023-02-08T02:28:52.883Z,103025.50
2023-02-08T02:31:40.564Z,103027.97
2023-02-08T02:35:05.475Z,103025.34
2023-02-08T02:38:08.788Z,103029.06
2023-02-08T02:40:50.399Z,103030.50
2023-02-08T02:43:46.310Z,103022.44
2023-02-08T02:46:35.295Z,103033.31
2023-02-08T02:50:07.127Z,103038.06
2023-02-08T02:53:05.928Z,103046.78
2023-02-08T02:55:40.726Z,103043.94
2023-02-08T02:58:10.763Z,103048.81
2023-02-08T03:00:38.382Z,103043.34
2023-02-08T03:03:07.085Z,103030.56
2023-02-08T03:05:34.698Z,103041.56
2023-02-08T03:08:39.439Z,103037.91
2023-02-08T03:11:31.720Z,103036.44
2023-02-08T03:14:36.691Z,103039.88
2023-02-08T03:17:27.668Z,103037.50
2023-02-08T03:20:16.598Z,103047.66
2023-02-08T03:23:10.520Z,103051.38
2023-02-08T03:25:58.022Z,103046.13
2023-02-08T03:28:28.615Z,103042.09
2023-02-08T03:31:21.490Z,103050.13
2023-02-08T03:34:13.217Z,103057.78
2023-02-08T03:36:55.816Z,103059.50
2023-02-08T03:39:28.895Z,103060.16
2023-02-08T03:42:01.257Z,103049.56
2023-02-08T03:44:41.813Z,103054.97
2023-02-08T03:47:19.663Z,103057.81
2023-02-08T03:49:54.128Z,103062.28
2023-02-08T03:52:23.165Z,103051.53
2023-02-08T03:55:01.209Z,103062.47
2023-02-08T03:57:38.379Z,103068.25
2023-02-08T04:00:16.303Z,103066.13
2023-02-08T04:03:09.228Z,103060.91
2023-02-08T04:05:37.226Z,103069.41
2023-02-08T04:08:04.732Z,103069.03
2023-02-08T04:10:31.907Z,103059.59
2023-02-08T04:12:59.282Z,103069.19
2023-02-08T04:15:27.437Z,103061.78
2023-02-08T04:17:55.074Z,103059.13
2023-02-08T04:20:22.263Z,103063.75
2023-02-08T04:22:49.847Z,103068.00
2023-02-08T04:25:17.102Z,103067.34
2023-02-08T04:27:44.157Z,103072.78
2023-02-08T04:30:12.387Z,103070.09
2023-02-08T04:32:39.404Z,103066.81
2023-02-08T04:35:07.196Z,103074.16
2023-02-08T04:37:34.526Z,103070.44
2023-02-08T04:40:01.661Z,103066.44
2023-02-08T04:42:28.827Z,103074.97
2023-02-08T04:44:55.972Z,103069.72
2023-02-08T04:47:23.347Z,103080.72
2023-02-08T04:49:50.348Z,103084.00
2023-02-08T04:52:17.358Z,103084.22
2023-02-08T04:54:44.402Z,103083.91
2023-02-08T04:57:15.355Z,103081.00
2023-02-08T04:59:42.575Z,103087.19
2023-02-08T05:02:10.004Z,103080.59
2023-02-08T05:04:37.021Z,103081.44
2023-02-08T05:07:04.150Z,103083.38
2023-02-08T05:09:32.649Z,103085.81
2023-02-08T05:11:59.663Z,103079.97
2023-02-08T05:14:26.679Z,103086.13
2023-02-08T05:16:53.717Z,103091.63
2023-02-08T05:19:20.683Z,103097.19
2023-02-08T05:21:47.697Z,103098.22
2023-02-08T05:24:14.749Z,103108.19
2023-02-08T05:26:42.116Z,103106.56
2023-02-08T05:29:09.118Z,103116.28
2023-02-08T05:31:36.534Z,103106.56
2023-02-08T05:34:03.987Z,103108.47
2023-02-08T05:36:31.038Z,103110.16
2023-02-08T05:38:58.110Z,103121.69
2023-02-08T05:41:25.191Z,103117.22
2023-02-08T05:43:52.249Z,103122.16
2023-02-08T05:46:19.318Z,103130.19
2023-02-08T05:48:46.485Z,103134.13
2023-02-08T05:51:13.520Z,103132.31
2023-02-08T05:53:40.600Z,103128.06
2023-02-08T05:56:07.816Z,103119.41
2023-02-08T05:58:35.258Z,103131.16
2023-02-08T06:01:07.389Z,103127.59
2023-02-08T06:03:34.367Z,103143.22
2023-02-08T06:06:01.768Z,103149.41
2023-02-08T06:08:28.868Z,103156.06
2023-02-08T06:10:55.973Z,103152.28
2023-02-08T06:13:23.153Z,103152.88
2023-02-08T06:15:50.285Z,103153.41
2023-02-08T06:18:18.527Z,103149.75
2023-02-08T06:20:45.555Z,103153.34
2023-02-08T06:23:12.654Z,103150.28
2023-02-08T06:25:39.719Z,103159.16
2023-02-08T06:28:08.916Z,103156.38
2023-02-08T06:30:36.799Z,103164.78
2023-02-08T06:33:04.851Z,103159.16
2023-02-08T06:35:32.772Z,103165.47
2023-02-08T06:37:59.917Z,103159.91
2023-02-08T06:40:27.192Z,103153.94
2023-02-08T06:42:54.189Z,103165.63
2023-02-08T06:45:21.185Z,103173.56
2023-02-08T06:47:48.185Z,103175.03
2023-02-08T06:50:15.304Z,103169.63
2023-02-08T06:52:42.352Z,103175.56
2023-02-08T06:55:09.334Z,103184.66
2023-02-08T06:57:36.394Z,103188.16
2023-02-08T07:00:05.334Z,103184.06
2023-02-08T07:02:32.776Z,103191.81
2023-02-08T07:04:59.782Z,103193.47
2023-02-08T07:07:28.070Z,103192.13
2023-02-08T07:09:55.096Z,103196.75
2023-02-08T07:12:22.106Z,103203.53
2023-02-08T07:14:49.232Z,103206.66
2023-02-08T07:17:16.328Z,103212.84
2023-02-08T07:19:43.335Z,103220.63
2023-02-08T07:22:10.377Z,103215.47
2023-02-08T07:24:40.651Z,103217.16
2023-02-08T07:27:10.593Z,103211.94
2023-02-08T07:29:38.350Z,103212.00
2023-02-08T07:32:07.413Z,103214.09
2023-02-08T07:34:37.458Z,103213.38
2023-02-08T07:37:04.848Z,103217.78
2023-02-08T07:39:32.142Z,103211.34
2023-02-08T07:41:59.891Z,103214.84
2023-02-08T07:44:26.988Z,103204.06
2023-02-08T07:46:54.049Z,103209.72
2023-02-08T07:49:21.152Z,103216.94
2023-02-08T07:51:48.176Z,103213.06
2023-02-08T07:54:15.793Z,103209.78
2023-02-08T07:56:42.858Z,103216.28
2023-02-08T07:59:09.908Z,103215.00
2023-02-08T08:01:37.014Z,103212.84
2023-02-08T08:04:04.386Z,103208.72
2023-02-08T08:06:31.408Z,103205.22
2023-02-08T08:08:58.652Z,103218.34
2023-02-08T08:11:25.711Z,103225.94
2023-02-08T08:13:53.111Z,103222.34
2023-02-08T08:16:20.826Z,103221.31
2023-02-08T08:18:48.152Z,103224.31
2023-02-08T08:21:16.756Z,103219.53
2023-02-08T08:23:44.328Z,103214.31
2023-02-08T08:26:16.162Z,103231.16
2023-02-08T08:28:43.791Z,103221.16
2023-02-08T08:31:16.744Z,103217.91
2023-02-08T08:33:44.286Z,103219.16
2023-02-08T08:36:11.510Z,103223.94
2023-02-08T08:38:39.382Z,103230.44
2023-02-08T08:41:12.650Z,103229.94
2023-02-08T08:43:39.706Z,103230.63
2023-02-08T08:46:10.629Z,103232.22
2023-02-08T08:48:40.734Z,103233.56
2023-02-08T08:51:07.755Z,103232.22
2023-02-08T08:53:37.087Z,103232.56
2023-02-08T08:56:05.723Z,103242.75
2023-02-08T08:58:33.105Z,103242.41
2023-02-08T09:01:00.589Z,103238.88
2023-02-08T09:03:29.017Z,103249.84
2023-02-08T09:05:56.909Z,103247.47
2023-02-08T09:08:24.200Z,103244.19
2023-02-08T09:10:51.204Z,103241.16
2023-02-08T09:13:21.855Z,103236.28
2023-02-08T09:15:49.922Z,103240.50
2023-02-08T09:18:17.066Z,103236.53
2023-02-08T09:20:44.475Z,103241.81
2023-02-08T09:23:12.783Z,103246.94
2023-02-08T09:25:40.174Z,103246.94
2023-02-08T09:28:07.257Z,103246.19
2023-02-08T09:30:34.295Z,103243.69
2023-02-08T09:33:01.319Z,103244.94
2023-02-08T09:35:28.373Z,103242.81
2023-02-08T09:37:58.171Z,103247.66
2023-02-08T09:40:36.031Z,103248.50
2023-02-08T09:43:44.576Z,103244.69
2023-02-08T09:46:36.025Z,103249.50
2023-02-08T09:49:09.561Z,103245.28
2023-02-08T09:51:41.902Z,103236.94
2023-02-08T09:54:29.839Z,103245.13
2023-02-08T09:57:01.511Z,103249.44
2023-02-08T09:59:32.775Z,103251.31
2023-02-08T10:02:27.393Z,103246.63
2023-02-08T10:05:00.242Z,103254.31
2023-02-08T10:07:28.978Z,103255.56
2023-02-08T10:10:02.260Z,103252.84
2023-02-08T10:12:43.580Z,103255.13
2023-02-08T10:15:16.412Z,103251.16
2023-02-08T10:18:19.596Z,103242.72
2023-02-08T10:21:24.793Z,103252.06
2023-02-08T10:24:22.140Z,103250.94
2023-02-08T10:27:16.101Z,103245.84
2023-02-08T10:30:24.925Z,103246.19
2023-02-08T10:33:02.975Z,103252.25
2023-02-08T10:35:39.196Z,103253.44
2023-02-08T10:38:31.935Z,103259.03
2023-02-08T10:41:07.938Z,103250.03
2023-02-08T10:43:45.993Z,103247.22
2023-02-08T10:46:35.602Z,103244.81
2023-02-08T10:49:31.946Z,103228.63
2023-02-08T10:51:58.989Z,103242.19
2023-02-08T10:54:26.032Z,103244.19
2023-02-08T10:57:12.985Z,103235.28
2023-02-08T10:59:51.176Z,103231.66
2023-02-08T11:02:26.814Z,103230.41
2023-02-08T11:05:12.773Z,103233.28
2023-02-08T11:07:39.942Z,103230.84
2023-02-08T11:10:16.130Z,103235.13
2023-02-08T11:13:14.908Z,103236.50
2023-02-08T11:15:52.707Z,103232.53
2023-02-08T11:18:37.808Z,103225.81
2023-02-08T11:21:20.853Z,103228.59
2023-02-08T11:23:55.571Z,103232.41
2023-02-08T11:26:33.543Z,103228.66
2023-02-08T11:29:27.593Z,103225.34
2023-02-08T11:32:02.739Z,103226.78
2023-02-08T11:34:38.529Z,103221.31
2023-02-08T11:37:25.941Z,103220.03
2023-02-08T11:40:01.316Z,103222.81
2023-02-08T11:42:35.957Z,103220.97
2023-02-08T11:45:04.861Z,103227.94
2023-02-08T11:47:37.482Z,103219.78
2023-02-08T11:50:08.278Z,103220.03
2023-02-08T11:52:41.429Z,103224.72
2023-02-08T11:55:16.748Z,103219.19
2023-02-08T11:58:17.991Z,103224.78
2023-02-08T12:01:05.017Z,103222.66
2023-02-08T12:03:38.802Z,103223.81
2023-02-08T12:06:30.390Z,103224.94
2023-02-08T12:09:03.124Z,103223.84
2023-02-08T12:11:43.437Z,103223.97
2023-02-08T12:14:40.949Z,103219.63
2023-02-08T12:17:26.872Z,103224.09
2023-02-08T12:20:30.591Z,103231.31
2023-02-08T12:23:43.375Z,103226.53
2023-02-08T12:26:31.000Z,103222.88
2023-02-08T12:29:33.134Z,103223.25
2023-02-08T12:32:11.369Z,103220.50
2023-02-08T12:35:41.432Z,103211.09
2023-02-08T12:38:54.531Z,103210.06
2023-02-08T12:42:03.744Z,103210.56
2023-02-08T12:44:54.144Z,103208.56
2023-02-08T12:48:04.035Z,103210.13
2023-02-08T12:50:56.129Z,103195.53
2023-02-08T12:53:54.726Z,103198.50
2023-02-08T12:56:29.703Z,103207.56
2023-02-08T12:59:11.894Z,103193.19
2023-02-08T13:01:47.294Z,103182.56
2023-02-08T13:04:23.165Z,103190.16
2023-02-08T13:07:08.770Z,103183.69
2023-02-08T13:09:44.424Z,103179.84
2023-02-08T13:12:38.253Z,103177.22
2023-02-08T13:15:30.674Z,103178.44
2023-02-08T13:18:12.195Z,103172.16
2023-02-08T13:20:53.677Z,103171.84
2023-02-08T13:23:38.449Z,103171.81
2023-02-08T13:26:31.735Z,103161.03
2023-02-08T13:29:02.738Z,103155.03
2023-02-08T13:31:39.026Z,103173.22
2023-02-08T13:34:28.079Z,103158.72
2023-02-08T13:37:03.641Z,103159.03
2023-02-08T13:39:45.599Z,103163.69
2023-02-08T13:42:48.484Z,103160.44
2023-02-08T13:45:39.564Z,103158.13
2023-02-08T13:48:14.395Z,103157.50
2023-02-08T13:50:54.296Z,103157.66
2023-02-08T13:53:39.890Z,103159.81
2023-02-08T13:56:12.401Z,103162.56
2023-02-08T13:58:39.492Z,103166.41
2023-02-08T14:01:15.235Z,103163.19
2023-02-08T14:03:42.508Z,103152.69
2023-02-08T14:06:28.131Z,103163.28
2023-02-08T14:09:26.905Z,103162.06
2023-02-08T14:12:03.577Z,103162.69
2023-02-08T14:14:38.572Z,103157.72
2023-02-08T14:17:05.471Z,103159.25
2023-02-08T14:19:36.610Z,103151.41
2023-02-08T14:22:17.284Z,103158.44
2023-02-08T14:25:00.527Z,103165.00
2023-02-08T14:27:50.694Z,103170.03
2023-02-08T14:30:17.597Z,103170.41
2023-02-08T14:33:08.695Z,103174.59
2023-02-08T14:35:50.586Z,103169.34
2023-02-08T14:38:20.769Z,103166.63
2023-02-08T14:40:55.124Z,103159.19
2023-02-08T14:43:37.991Z,103150.44
2023-02-08T14:46:39.179Z,103161.88
2023-02-08T14:49:15.904Z,103156.94
2023-02-08T14:51:56.579Z,103159.69
2023-02-08T14:54:39.825Z,103150.16
2023-02-08T14:57:28.124Z,103159.06
2023-02-08T14:59:59.074Z,103153.63
2023-02-08T15:02:37.177Z,103154.63
2023-02-08T15:05:09.897Z,103153.34
2023-02-08T15:07:57.432Z,103158.84
2023-02-08T15:10:27.085Z,103155.59
2023-02-08T15:13:00.680Z,103152.00
2023-02-08T15:15:41.586Z,103159.34
2023-02-08T15:18:20.509Z,103155.78
2023-02-08T15:21:03.633Z,103152.88
2023-02-08T15:23:30.980Z,103148.97
2023-02-08T15:26:19.676Z,103149.16
2023-02-08T15:28:46.854Z,103144.53
2023-02-08T15:31:19.250Z,103137.25
2023-02-08T15:33:47.470Z,103136.47
2023-02-08T15:36:24.650Z,103138.56
2023-02-08T15:38:52.067Z,103129.28
2023-02-08T15:41:34.373Z,103130.53
2023-02-08T15:44:30.130Z,103124.25
2023-02-08T15:47:04.332Z,103124.31
2023-02-08T15:49:43.589Z,103118.69
2023-02-08T15:52:19.536Z,103121.16
2023-02-08T15:54:47.222Z,103112.38
2023-02-08T15:57:38.753Z,103108.50
2023-02-08T16:00:13.239Z,103110.03
2023-02-08T16:02:41.289Z,103108.25
2023-02-08T16:05:26.819Z,103108.88
2023-02-08T16:07:54.696Z,103107.00
2023-02-08T16:10:46.637Z,103110.81
2023-02-08T16:13:30.314Z,103115.94
2023-02-08T16:16:20.300Z,103111.06
2023-02-08T16:18:58.662Z,103113.44
2023-02-08T16:21:25.523Z,103107.97
2023-02-08T16:23:56.714Z,103109.88
2023-02-08T16:26:32.270Z,103104.41
2023-02-08T16:29:02.807Z,103108.31
2023-02-08T16:31:33.303Z,103108.72
2023-02-08T16:34:07.658Z,103098.19
2023-02-08T16:36:40.535Z,103108.38
2023-02-08T16:39:19.482Z,103102.84
2023-02-08T16:42:06.376Z,103100.03
2023-02-08T16:45:23.535Z,103089.84
2023-02-08T16:47:58.378Z,103086.47
2023-02-08T16:50:28.482Z,103085.13
2023-02-08T16:53:04.116Z,103080.69
2023-02-08T16:55:36.364Z,103078.09
2023-02-08T16:58:03.456Z,103072.09
2023-02-08T17:00:33.322Z,103080.69
2023-02-08T17:03:01.258Z,103069.00
2023-02-08T17:05:35.261Z,103084.47
2023-02-08T17:08:09.952Z,103073.88
2023-02-08T17:10:38.093Z,103082.31
2023-02-08T17:13:19.753Z,103073.47
2023-02-08T17:15:49.587Z,103071.84
2023-02-08T17:18:16.746Z,103073.09
2023-02-08T17:20:44.115Z,103070.75
2023-02-08T17:23:11.719Z,103078.06
2023-02-08T17:25:39.297Z,103074.03
2023-02-08T17:28:14.380Z,103072.19
2023-02-08T17:30:43.753Z,103066.28
2023-02-08T17:33:18.298Z,103078.81
2023-02-08T17:35:51.405Z,103072.97
2023-02-08T17:38:20.085Z,103073.72
2023-02-08T17:40:48.021Z,103069.63
2023-02-08T17:43:15.146Z,103075.19
2023-02-08T17:45:43.847Z,103081.47
2023-02-08T17:48:13.530Z,103080.41
2023-02-08T17:50:47.777Z,103085.50
2023-02-08T17:53:15.989Z,103081.25
2023-02-08T17:55:47.222Z,103069.19
2023-02-08T17:58:14.398Z,103072.53
2023-02-08T18:00:41.462Z,103075.22
2023-02-08T18:03:08.638Z,103073.75
2023-02-08T18:05:36.951Z,103079.47
2023-02-08T18:08:04.076Z,103074.75
2023-02-08T18:10:31.152Z,103083.78
2023-02-08T18:12:59.087Z,103074.38
2023-02-08T18:15:26.069Z,103076.56
2023-02-08T18:17:53.156Z,103066.84
2023-02-08T18:20:20.578Z,103061.28
2023-02-08T18:22:47.690Z,103061.13
2023-02-08T18:25:16.144Z,103057.94
2023-02-08T18:27:43.520Z,103064.09
2023-02-08T18:30:12.394Z,103065.91
2023-02-08T18:32:39.867Z,103054.81
2023-02-08T18:35:08.797Z,103057.78
2023-02-08T18:37:37.659Z,103051.88
2023-02-08T18:40:07.631Z,103066.31
2023-02-08T18:42:36.335Z,103056.31
2023-02-08T18:45:06.928Z,103066.72
2023-02-08T18:47:36.533Z,103066.53
2023-02-08T18:50:04.055Z,103070.38
2023-02-08T18:52:31.721Z,103072.22
2023-02-08T18:54:58.938Z,103070.38
2023-02-08T18:57:25.942Z,103068.34
2023-02-08T18:59:54.300Z,103067.09
2023-02-08T19:02:23.061Z,103077.16
2023-02-08T19:04:50.219Z,103072.31
2023-02-08T19:07:17.216Z,103076.03
2023-02-08T19:09:44.344Z,103068.53
2023-02-08T19:12:15.666Z,103067.75
2023-02-08T19:14:43.713Z,103059.44
2023-02-08T19:17:13.581Z,103041.13
2023-02-08T19:19:41.991Z,103051.34
2023-02-08T19:22:09.551Z,103052.50
2023-02-08T19:24:36.618Z,103049.31
2023-02-08T19:27:03.985Z,103048.09
2023-02-08T19:29:32.682Z,103044.56
2023-02-08T19:31:59.748Z,103042.88
2023-02-08T19:34:26.768Z,103019.34
2023-02-08T19:36:54.862Z,103028.09
2023-02-08T19:39:26.149Z,103027.41
2023-02-08T19:41:54.680Z,103026.06
2023-02-08T19:44:22.806Z,103027.03
2023-02-08T19:46:53.952Z,103036.69
2023-02-08T19:49:25.921Z,103023.22
2023-02-08T19:51:53.543Z,103025.56
2023-02-08T19:54:21.478Z,103033.91
2023-02-08T19:56:50.409Z,103019.81
2023-02-08T19:59:27.722Z,103026.41
2023-02-08T20:01:55.638Z,103027.91
2023-02-08T20:04:23.615Z,103016.25
2023-02-08T20:06:53.727Z,103022.75
2023-02-08T20:09:21.304Z,103023.41
2023-02-08T20:11:57.356Z,103027.88
2023-02-08T20:14:31.137Z,103023.63
2023-02-08T20:16:58.801Z,103019.50
2023-02-08T20:19:26.349Z,103012.28
2023-02-08T20:21:53.641Z,103015.94
2023-02-08T20:24:21.496Z,103015.41
2023-02-08T20:26:49.327Z,103018.28
2023-02-08T20:29:17.241Z,103012.06
2023-02-08T20:31:47.703Z,103006.88
2023-02-08T20:34:19.001Z,103002.81
2023-02-08T20:37:04.556Z,103001.88
2023-02-08T20:39:34.826Z,103003.72
2023-02-08T20:42:01.839Z,103004.72
2023-02-08T20:44:28.863Z,103005.28
2023-02-08T20:46:56.007Z,103002.56
2023-02-08T20:49:25.718Z,103004.97
2023-02-08T20:51:55.831Z,103006.38
2023-02-08T20:54:24.812Z,102994.69
2023-02-08T20:56:53.816Z,103003.63
2023-02-08T20:59:21.276Z,102995.69
2023-02-08T21:01:48.568Z,102996.78
2023-02-08T21:04:17.199Z,102995.84
2023-02-08T21:06:46.246Z,102999.78
2023-02-08T21:09:15.952Z,102998.34
2023-02-08T21:11:44.097Z,102995.03
2023-02-08T21:14:18.559Z,102992.78
2023-02-08T21:16:52.444Z,103000.19
2023-02-08T21:19:20.845Z,103004.66
2023-02-08T21:21:56.997Z,102991.13
2023-02-08T21:24:24.811Z,102996.19
2023-02-08T21:26:56.580Z,103003.63
2023-02-08T21:29:24.646Z,102999.50
2023-02-08T21:31:54.148Z,102992.44
2023-02-08T21:34:21.652Z,102994.50
2023-02-08T21:36:48.802Z,102987.97
2023-02-08T21:39:15.785Z,102992.84
2023-02-08T21:41:42.808Z,102992.66
2023-02-08T21:44:10.974Z,102985.38
2023-02-08T21:46:38.140Z,102988.56
2023-02-08T21:49:23.755Z,102974.69
2023-02-08T21:52:09.884Z,102964.28
2023-02-08T21:54:43.036Z,102980.66
2023-02-08T21:57:20.797Z,102978.97
2023-02-08T21:59:51.201Z,102979.34
2023-02-08T22:02:25.909Z,102964.16
2023-02-08T22:04:55.356Z,102966.38
2023-02-08T22:07:23.616Z,102951.56
2023-02-08T22:09:51.276Z,102939.75
2023-02-08T22:12:21.052Z,102945.84
2023-02-08T22:14:49.516Z,102956.63
2023-02-08T22:17:17.017Z,102951.81
2023-02-08T22:19:44.299Z,102951.97
2023-02-08T22:22:12.441Z,102953.81
2023-02-08T22:24:39.734Z,102953.66
2023-02-08T22:27:06.845Z,102940.31
2023-02-08T22:29:34.240Z,102938.88
2023-02-08T22:32:01.581Z,102932.91
2023-02-08T22:34:29.113Z,102930.31
2023-02-08T22:36:56.164Z,102917.94
2023-02-08T22:39:23.566Z,102930.31
2023-02-08T22:41:50.668Z,102926.44
2023-02-08T22:44:17.730Z,102927.03
2023-02-08T22:46:44.891Z,102913.13
2023-02-08T22:49:12.136Z,102914.06
2023-02-08T22:51:39.164Z,102907.41
2023-02-08T22:54:06.323Z,102907.38
2023-02-08T22:56:33.445Z,102906.47
2023-02-08T22:59:00.815Z,102904.63
2023-02-08T23:01:28.654Z,102898.72
2023-02-08T23:03:55.801Z,102898.16
2023-02-08T23:06:22.843Z,102898.34
2023-02-08T23:08:50.560Z,102904.97
2023-02-08T23:11:18.370Z,102888.50
2023-02-08T23:13:45.453Z,102891.81
2023-02-08T23:16:15.157Z,102881.66
2023-02-08T23:18:43.004Z,102882.22
2023-02-08T23:21:15.546Z,102865.16
2023-02-08T23:23:44.010Z,102874.63
2023-02-08T23:26:15.243Z,102867.03
2023-02-08T23:28:42.389Z,102865.91
2023-02-08T23:31:12.544Z,102866.66
2023-02-08T23:33:40.022Z,102859.25
2023-02-08T23:36:11.285Z,102856.84
2023-02-08T23:38:39.292Z,102851.81
2023-02-08T23:41:10.872Z,102858.69
2023-02-08T23:43:38.722Z,102853.88
2023-02-08T23:46:12.049Z,102862.41
2023-02-08T23:48:39.474Z,102852.78
2023-02-08T23:51:08.050Z,102847.97
2023-02-08T23:53:37.114Z,102846.84
2023-02-08T23:56:10.287Z,102853.88
2023-02-08T23:58:37.686Z,102850.53
